Terminal Aerodrome Forecast
Issued by NWS

Home | Current Version | Previous Version | Text Only | Print | Product List | Glossary On
Versions: 1 2 3 4 5 6 7 8 9 10 11 12 13 14 15 16 17
000
FTUS45 KRIW 260216 AAA
TAFCOD
TAF AMD
KCOD 260216Z 2602/2624 35012G18KT P6SM VCSH SCT020 OVC035
      TEMPO 2602/2603 01025G45KT -SHRA BKN025
     FM260300 35018G35KT 4SM -SHRA SCT015 OVC025
     FM260500 33007KT P6SM SCT020 BKN040
     FM261000 VRB05KT P6SM SCT040
      AMD LTD TO CLD VIS AND WIND=

USA.gov is the U.S. government's official web portal to all federal, state and local government web resources and services.